Time;durP1;ratioP1;P1;durP2;ratioP2;P2;SDS_P1;SDS_P2;PMS_P1;PMS_P2;Temp;Humidity;BMP_temperature;BMP_pressure;BME280_temperature;BME280_humidity;BME280_pressure;Samples;Min_cycle;Max_cycle;Signal;HPM_P1;HPM_P2
2022/09/14 00:04:13;;;;;;;1.50;1.40;;;;;;;;;;12597733;28;20051;-75
2022/09/14 00:10:15;;;;;;;1.58;1.27;;;;;;;;;;12581493;28;20509;-75
2022/09/14 00:16:21;;;;;;;1.88;1.60;;;;;;;;;;12580676;28;20502;-75
2022/09/14 00:22:23;;;;;;;1.77;1.67;;;;;;;;;;12598403;28;20502;-75
2022/09/14 00:28:24;;;;;;;1.70;1.60;;;;;;;;;;12598096;28;20047;-74
2022/09/14 00:34:26;;;;;;;1.80;1.70;;;;;;;;;;12579738;28;20032;-74
2022/09/14 00:40:28;;;;;;;1.63;1.52;;;;;;;;;;12597551;28;20055;-74
2022/09/14 00:46:30;;;;;;;;;;;;;;;;;;12579719;28;20048;-74
2022/09/14 00:52:33;;;;;;;1.83;1.73;;;;;;;;;;12597415;28;19912;-74
2022/09/14 00:58:35;;;;;;;1.50;1.40;;;;;;;;;;12596248;28;20028;-74
2022/09/14 01:04:37;;;;;;;1.45;1.35;;;;;;;;;;12596151;28;20032;-74
2022/09/14 01:10:39;;;;;;;1.50;1.40;;;;;;;;;;12596037;28;20057;-74
2022/09/14 01:17:08;;;;;;;1.75;1.65;;;;;;;;;;12578217;28;20043;-74
2022/09/14 01:23:32;;;;;;;1.42;1.38;;;;;;;;;;12610879;28;20052;-74
2022/09/14 01:29:49;;;;;;;1.80;1.60;;;;;;;;;;12602297;28;20490;-74
2022/09/14 01:35:54;;;;;;;1.95;1.50;;;;;;;;;;12626949;28;20029;-74
2022/09/14 01:41:56;;;;;;;2.13;1.63;;;;;;;;;;12631847;28;20084;-73
2022/09/14 01:48:02;;;;;;;1.80;1.70;;;;;;;;;;12595231;28;20055;-74
2022/09/14 01:54:23;;;;;;;1.77;1.67;;;;;;;;;;12576643;28;20028;-74
2022/09/14 02:00:25;;;;;;;1.90;1.80;;;;;;;;;;12577132;28;20043;-74
2022/09/14 02:06:36;;;;;;;1.95;1.85;;;;;;;;;;12577612;28;20055;-75
2022/09/14 02:12:38;;;;;;;2.08;1.80;;;;;;;;;;12594193;28;20068;-74
2022/09/14 02:18:42;;;;;;;;;;;;;;;;;;12594350;28;20363;-74
2022/09/14 02:24:44;;;;;;;1.80;1.70;;;;;;;;;;12597020;28;20078;-74
2022/09/14 02:30:54;;;;;;;1.48;1.48;;;;;;;;;;12603526;28;20040;-74
2022/09/14 02:37:15;;;;;;;1.52;1.42;;;;;;;;;;12585431;28;20504;-74
2022/09/14 02:43:20;;;;;;;1.55;1.40;;;;;;;;;;12585703;28;20033;-74
2022/09/14 02:49:26;;;;;;;1.15;1.15;;;;;;;;;;12602097;28;20064;-74
2022/09/14 02:55:31;;;;;;;1.30;1.20;;;;;;;;;;12602134;28;20032;-74
2022/09/14 03:01:33;;;;;;;2.03;1.45;;;;;;;;;;12601730;28;20033;-74
2022/09/14 03:07:35;;;;;;;1.17;0.98;;;;;;;;;;12601778;28;20402;-74
2022/09/14 03:13:37;;;;;;;0.90;0.90;;;;;;;;;;12584257;28;20064;-74
2022/09/14 03:19:40;;;;;;;;;;;;;;;;;;12583605;28;20068;-74
2022/09/14 03:25:42;;;;;;;1.52;1.42;;;;;;;;;;12582799;28;19920;-74
2022/09/14 03:31:44;;;;;;;1.48;1.17;;;;;;;;;;12601058;28;20032;-74
2022/09/14 03:37:46;;;;;;;;;;;;;;;;;;12582964;28;20033;-74
2022/09/14 03:43:47;;;;;;;1.80;1.70;;;;;;;;;;12600187;28;19909;-74
2022/09/14 03:49:49;;;;;;;;;;;;;;;;;;12599918;28;20047;-74
2022/09/14 03:55:51;;;;;;;1.83;1.70;;;;;;;;;;12583431;28;19920;-74
2022/09/14 04:01:53;;;;;;;2.00;1.90;;;;;;;;;;12618348;28;20024;-74
2022/09/14 04:07:55;;;;;;;1.80;1.70;;;;;;;;;;12598878;28;20079;-74
2022/09/14 04:14:01;;;;;;;2.08;1.63;;;;;;;;;;12599293;28;20056;-74
2022/09/14 04:20:02;;;;;;;2.50;2.30;;;;;;;;;;12580967;28;20486;-74
2022/09/14 04:26:11;;;;;;;2.35;2.10;;;;;;;;;;12580044;28;20039;-74
2022/09/14 04:32:13;;;;;;;1.77;1.67;;;;;;;;;;12580100;28;20036;-74
2022/09/14 04:38:15;;;;;;;2.25;1.73;;;;;;;;;;12579629;28;20032;-74
2022/09/14 04:44:16;;;;;;;1.98;1.88;;;;;;;;;;12579635;28;20036;-74
2022/09/14 04:50:18;;;;;;;2.40;2.20;;;;;;;;;;12595776;28;20036;-74
2022/09/14 04:56:21;;;;;;;2.20;2.10;;;;;;;;;;12596186;28;20037;-74
2022/09/14 05:02:25;;;;;;;1.92;1.83;;;;;;;;;;12596341;28;20391;-75
2022/09/14 05:08:27;;;;;;;2.50;2.35;;;;;;;;;;12577623;28;20052;-74
2022/09/14 05:14:29;;;;;;;2.05;1.88;;;;;;;;;;12577523;28;20474;-76
2022/09/14 05:20:30;;;;;;;2.33;2.13;;;;;;;;;;12595868;28;20394;-74
2022/09/14 05:26:32;;;;;;;2.33;1.95;;;;;;;;;;12577872;28;20055;-74
2022/09/14 05:32:34;;;;;;;1.98;1.88;;;;;;;;;;12595128;28;20024;-74
2022/09/14 05:38:37;;;;;;;2.63;2.42;;;;;;;;;;12560605;28;20498;-74
2022/09/14 05:44:39;;;;;;;2.78;2.58;;;;;;;;;;12508291;28;20029;-74
2022/09/14 05:50:41;;;;;;;2.00;1.90;;;;;;;;;;12511507;28;20035;-74
2022/09/14 05:56:43;;;;;;;2.90;2.70;;;;;;;;;;12497606;28;20022;-74
2022/09/14 06:02:48;;;;;;;3.90;3.55;;;;;;;;;;12498126;28;20031;-74
2022/09/14 06:08:52;;;;;;;4.07;3.75;;;;;;;;;;12572620;28;20071;-74
2022/09/14 06:14:54;;;;;;;2.92;2.63;;;;;;;;;;12556009;28;20084;-74
2022/09/14 06:20:56;;;;;;;2.28;2.17;;;;;;;;;;12501048;28;20055;-73
2022/09/14 06:26:58;;;;;;;3.70;3.38;;;;;;;;;;12499117;28;20035;-74
2022/09/14 06:33:00;;;;;;;3.50;3.25;;;;;;;;;;12486659;28;20030;-74
2022/09/14 06:39:01;;;;;;;2.97;2.78;;;;;;;;;;12495998;28;20046;-74
2022/09/14 06:45:03;;;;;;;4.00;3.70;;;;;;;;;;12509160;28;20037;-74
2022/09/14 06:51:05;;;;;;;;;;;;;;;;;;12484913;28;20060;-74
2022/09/14 06:57:07;;;;;;;2.45;2.25;;;;;;;;;;12485827;28;20393;-74
2022/09/14 07:03:08;;;;;;;;;;;;;;;;;;12524387;28;20378;-74
2022/09/14 07:09:10;;;;;;;2.87;2.67;;;;;;;;;;12538457;28;19920;-75
2022/09/14 07:15:12;;;;;;;2.92;2.67;;;;;;;;;;12527492;28;20048;-74
2022/09/14 07:21:15;;;;;;;3.25;2.25;;;;;;;;;;12535833;28;20032;-75
2022/09/14 07:27:17;;;;;;;3.67;2.90;;;;;;;;;;12565935;28;20047;-76
2022/09/14 07:33:18;;;;;;;2.80;2.60;;;;;;;;;;12536331;28;20044;-75
2022/09/14 07:39:20;;;;;;;2.97;2.70;;;;;;;;;;12544759;28;20739;-74
2022/09/14 07:45:22;;;;;;;3.10;2.85;;;;;;;;;;12542705;28;20036;-74
2022/09/14 07:51:24;;;;;;;3.13;2.92;;;;;;;;;;12504452;28;20033;-74
2022/09/14 07:57:27;;;;;;;2.25;2.00;;;;;;;;;;12521118;28;20032;-75
2022/09/14 08:03:30;;;;;;;2.65;2.45;;;;;;;;;;12508435;28;20032;-75
2022/09/14 08:09:32;;;;;;;3.00;2.70;;;;;;;;;;12513726;28;20057;-76
2022/09/14 08:15:33;;;;;;;;;;;;;;;;;;12500848;28;20041;-74
2022/09/14 08:21:35;;;;;;;2.37;1.20;;;;;;;;;;12494191;28;19915;-75
2022/09/14 08:27:38;;;;;;;1.10;1.10;;;;;;;;;;12506464;28;20041;-75
2022/09/14 08:33:41;;;;;;;1.60;1.08;;;;;;;;;;12483980;28;20041;-74
2022/09/14 08:39:44;;;;;;;1.35;0.90;;;;;;;;;;12503750;28;20045;-75
2022/09/14 08:45:47;;;;;;;2.03;1.20;;;;;;;;;;12488906;28;20028;-75
2022/09/14 08:51:50;;;;;;;2.10;1.60;;;;;;;;;;12506959;28;20503;-74
2022/09/14 08:58:03;;;;;;;1.38;0.90;;;;;;;;;;12493144;28;20029;-75
2022/09/14 09:04:04;;;;;;;1.52;1.08;;;;;;;;;;12516620;28;20048;-75
2022/09/14 09:10:08;;;;;;;1.02;1.00;;;;;;;;;;12497178;28;20416;-75
2022/09/14 09:16:12;;;;;;;1.95;1.38;;;;;;;;;;12513008;28;20033;-75
2022/09/14 09:22:15;;;;;;;1.60;0.60;;;;;;;;;;12504155;28;20466;-75
2022/09/14 09:28:17;;;;;;;2.30;0.63;;;;;;;;;;12523459;28;20507;-75
2022/09/14 09:34:27;;;;;;;1.20;0.73;;;;;;;;;;12529982;28;20033;-75
2022/09/14 09:40:43;;;;;;;2.22;0.82;;;;;;;;;;12520902;28;20035;-76
2022/09/14 09:46:50;;;;;;;1.55;0.80;;;;;;;;;;12498627;28;20041;-74
2022/09/14 09:52:52;;;;;;;1.17;0.77;;;;;;;;;;12522558;28;21413;-76
2022/09/14 09:58:54;;;;;;;1.00;0.80;;;;;;;;;;12483395;28;20029;-75
2022/09/14 10:04:57;;;;;;;1.42;1.17;;;;;;;;;;12510567;28;20641;-75
2022/09/14 10:10:59;;;;;;;0.95;0.70;;;;;;;;;;12507577;28;20136;-74
2022/09/14 10:17:05;;;;;;;3.25;1.20;;;;;;;;;;12480200;28;20041;-74
2022/09/14 10:23:19;;;;;;;1.88;1.10;;;;;;;;;;12496315;28;20380;-76
2022/09/14 10:29:25;;;;;;;1.85;0.93;;;;;;;;;;12499022;28;20388;-74
2022/09/14 10:35:46;;;;;;;1.45;1.35;;;;;;;;;;12482254;28;20399;-74
2022/09/14 10:41:54;;;;;;;1.33;1.10;;;;;;;;;;12510858;28;20029;-74
2022/09/14 10:47:56;;;;;;;1.25;1.00;;;;;;;;;;12492626;28;20507;-75
2022/09/14 10:54:14;;;;;;;3.10;1.85;;;;;;;;;;12514447;28;20060;-75
2022/09/14 11:00:19;;;;;;;1.88;1.50;;;;;;;;;;12488807;28;20025;-75
2022/09/14 11:06:29;;;;;;;2.40;1.15;;;;;;;;;;12520590;28;20179;-74
2022/09/14 11:12:36;;;;;;;1.50;0.93;;;;;;;;;;12524019;28;20057;-74
2022/09/14 11:18:38;;;;;;;1.73;1.20;;;;;;;;;;12506453;28;20059;-74
2022/09/14 11:24:43;;;;;;;1.05;0.90;;;;;;;;;;12518074;28;20036;-75
2022/09/14 11:30:47;;;;;;;1.10;0.98;;;;;;;;;;12522956;28;20040;-75
2022/09/14 11:36:53;;;;;;;1.25;1.00;;;;;;;;;;12500113;28;20036;-76
2022/09/14 11:43:10;;;;;;;2.45;1.30;;;;;;;;;;12519059;28;20041;-75
2022/09/14 11:49:17;;;;;;;2.67;1.65;;;;;;;;;;12530015;28;20582;-74
2022/09/14 11:55:19;;;;;;;2.72;1.05;;;;;;;;;;12531444;28;20478;-75
2022/09/14 12:01:35;;;;;;;1.30;1.20;;;;;;;;;;12539926;28;20403;-75
2022/09/14 12:07:46;;;;;;;2.30;1.40;;;;;;;;;;12501921;28;20044;-75
2022/09/14 12:13:48;;;;;;;2.23;0.90;;;;;;;;;;12494637;28;20064;-75
2022/09/14 12:19:56;;;;;;;2.50;1.55;;;;;;;;;;12502367;28;20084;-75
2022/09/14 12:26:11;;;;;;;2.90;1.00;;;;;;;;;;12498106;28;20410;-75
2022/09/14 12:32:27;;;;;;;1.00;0.90;;;;;;;;;;12523022;28;20041;-75
2022/09/14 12:38:30;;;;;;;1.77;1.00;;;;;;;;;;12498516;28;20356;-74
2022/09/14 12:44:36;;;;;;;3.03;1.70;;;;;;;;;;12492650;28;20032;-74
2022/09/14 12:50:39;;;;;;;1.55;1.05;;;;;;;;;;12525147;28;20026;-75
2022/09/14 12:56:47;;;;;;;1.77;1.00;;;;;;;;;;12513888;28;20475;-74
2022/09/14 13:02:49;;;;;;;2.95;1.20;;;;;;;;;;12494025;28;20029;-73
2022/09/14 13:08:53;;;;;;;1.33;0.90;;;;;;;;;;12486504;28;20053;-75
2022/09/14 13:15:21;;;;;;;1.98;0.80;;;;;;;;;;12492496;28;20049;-75
2022/09/14 13:21:23;;;;;;;1.88;1.00;;;;;;;;;;12483545;28;20034;-75
2022/09/14 13:27:25;;;;;;;2.15;0.90;;;;;;;;;;12498226;28;20034;-74
2022/09/14 13:33:28;;;;;;;2.95;1.05;;;;;;;;;;12495469;28;20026;-74
2022/09/14 13:39:32;;;;;;;1.00;0.85;;;;;;;;;;12477862;28;20045;-74
2022/09/14 13:45:35;;;;;;;1.77;1.02;;;;;;;;;;12494731;28;20476;-74
2022/09/14 13:51:37;;;;;;;1.50;0.90;;;;;;;;;;12477307;28;20053;-75
2022/09/14 13:57:39;;;;;;;0.80;0.80;;;;;;;;;;12494646;28;20048;-75
2022/09/14 14:03:46;;;;;;;1.63;0.75;;;;;;;;;;12477242;28;20040;-75
2022/09/14 14:09:49;;;;;;;2.95;0.70;;;;;;;;;;12494136;28;20069;-74
2022/09/14 14:15:52;;;;;;;1.60;0.85;;;;;;;;;;12494271;28;20041;-75
2022/09/14 14:22:13;;;;;;;1.58;0.80;;;;;;;;;;12480173;28;20045;-74
2022/09/14 14:28:17;;;;;;;0.80;0.80;;;;;;;;;;12504140;28;20606;-75
2022/09/14 14:34:21;;;;;;;1.80;0.93;;;;;;;;;;12503650;28;20033;-75
2022/09/14 14:40:25;;;;;;;1.85;1.08;;;;;;;;;;12503842;28;20038;-75
2022/09/14 14:46:29;;;;;;;2.38;0.90;;;;;;;;;;12485547;28;20052;-74
2022/09/14 14:52:31;;;;;;;0.70;0.57;;;;;;;;;;12485256;28;20037;-75
2022/09/14 14:58:33;;;;;;;1.05;0.77;;;;;;;;;;12502797;28;20037;-75
2022/09/14 15:04:35;;;;;;;0.80;0.80;;;;;;;;;;12468501;28;20033;-75
2022/09/14 15:10:37;;;;;;;1.02;0.60;;;;;;;;;;12484732;28;20065;-75
2022/09/14 15:16:39;;;;;;;1.63;0.80;;;;;;;;;;12501733;28;20043;-75
2022/09/14 15:22:41;;;;;;;2.00;0.93;;;;;;;;;;12501436;28;20025;-75
2022/09/14 15:28:44;;;;;;;1.10;0.90;;;;;;;;;;12483145;28;20068;-74
2022/09/14 15:34:46;;;;;;;2.03;0.90;;;;;;;;;;12500752;28;20113;-74
2022/09/14 15:40:48;;;;;;;1.38;0.90;;;;;;;;;;12501711;28;20046;-74
2022/09/14 15:46:49;;;;;;;1.52;0.88;;;;;;;;;;12500317;28;20041;-75
2022/09/14 15:52:51;;;;;;;2.15;0.95;;;;;;;;;;12482477;28;20026;-74
2022/09/14 15:58:53;;;;;;;1.45;0.80;;;;;;;;;;12499854;28;20369;-75
2022/09/14 16:04:55;;;;;;;0.98;0.70;;;;;;;;;;12466070;28;20037;-75
2022/09/14 16:10:58;;;;;;;1.48;0.70;;;;;;;;;;12481662;28;20405;-74
2022/09/14 16:17:00;;;;;;;0.88;0.82;;;;;;;;;;12481641;28;20372;-75
2022/09/14 16:23:02;;;;;;;0.68;0.68;;;;;;;;;;12499114;28;20241;-74
2022/09/14 16:29:05;;;;;;;1.23;0.90;;;;;;;;;;12498148;28;20075;-74
2022/09/14 16:35:06;;;;;;;2.97;1.10;;;;;;;;;;12497801;28;20044;-74
2022/09/14 16:41:09;;;;;;;2.17;1.00;;;;;;;;;;12498559;28;20077;-74
2022/09/14 16:47:11;;;;;;;2.33;0.70;;;;;;;;;;12479233;28;20045;-74
2022/09/14 16:53:13;;;;;;;2.40;1.20;;;;;;;;;;12479707;28;20513;-74
2022/09/14 16:59:16;;;;;;;1.60;0.90;;;;;;;;;;12496762;28;20041;-74
2022/09/14 17:05:18;;;;;;;2.05;1.10;;;;;;;;;;12463333;28;20042;-74
2022/09/14 17:11:20;;;;;;;1.38;1.10;;;;;;;;;;12497518;28;20431;-74
2022/09/14 17:17:22;;;;;;;1.65;1.30;;;;;;;;;;12479034;28;20048;-76
2022/09/14 17:23:24;;;;;;;1.52;1.08;;;;;;;;;;12496343;28;20326;-74
2022/09/14 17:29:25;;;;;;;1.90;1.08;;;;;;;;;;12495804;28;20407;-75
2022/09/14 17:35:27;;;;;;;2.22;1.38;;;;;;;;;;12495456;28;20033;-74
2022/09/14 17:41:30;;;;;;;2.35;1.30;;;;;;;;;;12496492;28;20415;-75
2022/09/14 17:47:34;;;;;;;1.55;1.30;;;;;;;;;;12494586;28;20052;-75
2022/09/14 17:53:40;;;;;;;1.48;1.25;;;;;;;;;;12476800;28;20403;-74
2022/09/14 17:59:41;;;;;;;2.08;1.60;;;;;;;;;;12494732;28;20037;-74
2022/09/14 18:05:53;;;;;;;2.03;1.65;;;;;;;;;;12494098;28;20041;-75
2022/09/14 18:11:55;;;;;;;2.75;1.25;;;;;;;;;;12476709;28;20068;-74
2022/09/14 18:17:57;;;;;;;1.83;1.65;;;;;;;;;;12460115;28;20396;-73
2022/09/14 18:23:59;;;;;;;;;;;;;;;;;;12494259;28;20037;-74
2022/09/14 18:30:01;;;;;;;1.97;1.40;;;;;;;;;;12493554;28;19917;-73
2022/09/14 18:36:04;;;;;;;1.75;1.63;;;;;;;;;;12493831;28;20344;-74
2022/09/14 18:42:06;;;;;;;1.73;1.63;;;;;;;;;;12476616;28;20403;-74
2022/09/14 18:48:08;;;;;;;2.83;2.00;;;;;;;;;;12493401;28;20057;-73
2022/09/14 18:54:11;;;;;;;1.77;1.52;;;;;;;;;;12459487;28;20045;-75
2022/09/14 19:00:13;;;;;;;3.67;1.90;;;;;;;;;;12493580;28;20038;-73
2022/09/14 19:06:16;;;;;;;2.28;2.08;;;;;;;;;;12461772;28;20470;-74
2022/09/14 19:12:18;;;;;;;3.28;2.00;;;;;;;;;;12484925;28;20514;-74
2022/09/14 19:18:21;;;;;;;;;;;;;;;;;;12502522;28;20038;-73
2022/09/14 19:24:22;;;;;;;2.80;2.40;;;;;;;;;;12484128;28;19920;-75
2022/09/14 19:30:24;;;;;;;2.75;2.30;;;;;;;;;;12484004;28;20041;-75
2022/09/14 19:36:27;;;;;;;2.33;1.98;;;;;;;;;;12483763;28;20040;-74
2022/09/14 19:42:29;;;;;;;2.30;2.10;;;;;;;;;;12483481;28;20045;-73
2022/09/14 19:48:31;;;;;;;2.50;1.75;;;;;;;;;;12500387;28;20037;-74
2022/09/14 19:54:33;;;;;;;1.90;1.77;;;;;;;;;;12482934;28;20052;-75
2022/09/14 20:00:35;;;;;;;2.25;2.05;;;;;;;;;;12482212;28;20399;-73
2022/09/14 20:06:39;;;;;;;3.63;2.08;;;;;;;;;;12465411;28;20044;-74
2022/09/14 20:12:41;;;;;;;2.50;2.30;;;;;;;;;;12482104;28;20508;-73
2022/09/14 20:18:42;;;;;;;;;;;;;;;;;;12499641;28;20034;-75
2022/09/14 20:24:45;;;;;;;4.55;2.00;;;;;;;;;;12481686;28;19928;-74
2022/09/14 20:30:55;;;;;;;2.75;2.28;;;;;;;;;;12499517;28;20044;-74
2022/09/14 20:37:01;;;;;;;3.50;2.90;;;;;;;;;;12498404;28;20033;-73
2022/09/14 20:43:02;;;;;;;3.08;2.78;;;;;;;;;;12481370;28;20032;-74
2022/09/14 20:49:06;;;;;;;2.70;2.50;;;;;;;;;;12464063;28;20422;-74
2022/09/14 20:55:08;;;;;;;3.85;2.75;;;;;;;;;;12498128;28;20037;-73
2022/09/14 21:01:11;;;;;;;3.08;2.80;;;;;;;;;;12479679;28;20040;-74
2022/09/14 21:07:13;;;;;;;2.80;2.50;;;;;;;;;;12497055;28;20048;-75
2022/09/14 21:13:15;;;;;;;3.28;2.70;;;;;;;;;;12496707;28;20045;-73
2022/09/14 21:19:18;;;;;;;2.90;2.70;;;;;;;;;;12496281;28;20045;-73
2022/09/14 21:25:20;;;;;;;2.83;2.53;;;;;;;;;;12478927;28;20033;-73
2022/09/14 21:31:22;;;;;;;;;;;;;;;;;;12495588;28;20045;-73
2022/09/14 21:37:25;;;;;;;2.73;2.27;;;;;;;;;;12478105;28;19920;-73
2022/09/14 21:43:27;;;;;;;3.20;2.40;;;;;;;;;;12478495;28;20037;-73
2022/09/14 21:49:29;;;;;;;;;;;;;;;;;;12495651;28;20526;-73
2022/09/14 21:55:31;;;;;;;2.47;2.03;;;;;;;;;;12495139;28;20268;-73
2022/09/14 22:01:32;;;;;;;;;;;;;;;;;;12495278;28;20037;-73
2022/09/14 22:07:34;;;;;;;2.93;2.20;;;;;;;;;;12494594;28;19917;-73
2022/09/14 22:13:36;;;;;;;2.33;2.10;;;;;;;;;;12477341;28;20060;-73
2022/09/14 22:19:38;;;;;;;2.00;1.90;;;;;;;;;;12460777;28;20080;-73
2022/09/14 22:25:41;;;;;;;3.25;2.67;;;;;;;;;;12481548;28;20037;-73
2022/09/14 22:31:44;;;;;;;2.80;2.60;;;;;;;;;;12498108;28;20041;-73
2022/09/14 22:37:47;;;;;;;3.38;2.85;;;;;;;;;;12493890;28;20067;-73
2022/09/14 22:43:49;;;;;;;3.03;2.50;;;;;;;;;;12484431;28;20049;-73
2022/09/14 22:49:51;;;;;;;3.50;2.65;;;;;;;;;;12469190;28;20414;-74
2022/09/14 22:55:53;;;;;;;2.40;2.20;;;;;;;;;;12469626;28;20041;-73
2022/09/14 23:01:55;;;;;;;;;;;;;;;;;;12503008;28;20037;-74
2022/09/14 23:07:56;;;;;;;3.75;1.80;;;;;;;;;;12485652;28;19924;-74
2022/09/14 23:13:58;;;;;;;2.35;2.15;;;;;;;;;;12469360;28;20054;-74
2022/09/14 23:20:00;;;;;;;1.80;1.70;;;;;;;;;;12485199;28;20037;-75
2022/09/14 23:26:02;;;;;;;;;;;;;;;;;;12484849;28;20040;-74
2022/09/14 23:32:04;;;;;;;2.47;1.80;;;;;;;;;;12501408;28;20383;-74
2022/09/14 23:38:05;;;;;;;;;;;;;;;;;;12501583;28;20030;-73
2022/09/14 23:44:08;;;;;;;1.83;1.70;;;;;;;;;;12501041;28;19917;-74
2022/09/14 23:50:10;;;;;;;1.38;1.27;;;;;;;;;;12483251;28;20396;-75
2022/09/14 23:56:12;;;;;;;1.65;1.55;;;;;;;;;;12500419;28;20032;-73
